createdAt,value
2022-11-08T00:02:35.766Z,8.50
2022-11-08T00:07:56.015Z,8.50
2022-11-08T00:13:16.297Z,8.50
2022-11-08T00:18:18.181Z,8.50
2022-11-08T00:23:20.210Z,8.50
2022-11-08T00:28:22.062Z,8.60
2022-11-08T00:33:23.766Z,8.60
2022-11-08T00:38:25.534Z,8.60
2022-11-08T00:43:27.322Z,8.60
2022-11-08T00:48:29.046Z,8.60
2022-11-08T00:53:30.833Z,8.50
2022-11-08T00:58:32.785Z,8.60
2022-11-08T01:03:34.684Z,8.60
2022-11-08T01:08:36.512Z,8.70
2022-11-08T01:13:38.341Z,8.70
2022-11-08T01:18:41.098Z,8.70
2022-11-08T01:23:43.829Z,8.70
2022-11-08T01:28:46.914Z,8.80
2022-11-08T01:33:51.518Z,8.80
2022-11-08T01:38:54.424Z,8.90
2022-11-08T01:43:58.609Z,8.80
2022-11-08T01:49:27.960Z,8.90
2022-11-08T01:54:43.096Z,8.80
2022-11-08T01:59:46.573Z,8.80
2022-11-08T02:04:48.807Z,8.80
2022-11-08T02:09:50.588Z,8.80
2022-11-08T02:14:52.342Z,8.80
2022-11-08T02:19:54.235Z,8.70
2022-11-08T02:24:58.446Z,8.70
2022-11-08T02:30:00.187Z,8.60
2022-11-08T02:35:02.054Z,8.60
2022-11-08T02:40:05.047Z,8.60
2022-11-08T02:45:07.857Z,8.70
2022-11-08T02:50:10.091Z,8.70
2022-11-08T02:55:11.855Z,8.70
2022-11-08T03:00:14.179Z,8.70
2022-11-08T03:05:15.974Z,8.70
2022-11-08T03:10:18.385Z,8.80
2022-11-08T03:15:20.165Z,8.80
2022-11-08T03:20:21.950Z,8.80
2022-11-08T03:25:23.719Z,8.80
2022-11-08T03:30:25.449Z,8.80
2022-11-08T03:35:27.536Z,8.80
2022-11-08T03:40:29.324Z,8.80
2022-11-08T03:45:31.116Z,8.80
2022-11-08T03:50:32.879Z,8.80
2022-11-08T03:55:34.717Z,8.90
2022-11-08T04:00:36.442Z,8.90
2022-11-08T04:05:38.242Z,9.00
2022-11-08T04:10:39.995Z,8.90
2022-11-08T04:15:41.927Z,9.00
2022-11-08T04:21:05.259Z,8.90
2022-11-08T04:26:08.526Z,8.90
2022-11-08T04:31:16.756Z,8.80
2022-11-08T04:36:18.719Z,8.80
2022-11-08T04:41:22.736Z,8.80
2022-11-08T04:46:29.227Z,8.80
2022-11-08T04:51:33.271Z,8.90
2022-11-08T04:56:35.305Z,8.90
2022-11-08T05:01:37.175Z,9.00
2022-11-08T05:06:38.986Z,9.00
2022-11-08T05:11:40.721Z,9.00
2022-11-08T05:16:42.495Z,9.00
2022-11-08T05:22:02.919Z,9.00
2022-11-08T05:27:04.762Z,9.00
2022-11-08T05:32:06.627Z,9.00
2022-11-08T05:37:08.334Z,9.00
2022-11-08T05:42:10.271Z,9.10
2022-11-08T05:47:12.089Z,9.10
2022-11-08T05:52:13.983Z,9.10
2022-11-08T05:57:19.908Z,9.10
2022-11-08T06:02:23.911Z,9.10
2022-11-08T06:07:25.802Z,9.10
2022-11-08T06:12:27.844Z,9.20
2022-11-08T06:17:30.462Z,9.30
2022-11-08T06:22:33.993Z,9.30
2022-11-08T06:27:36.535Z,9.30
2022-11-08T06:32:38.431Z,9.30
2022-11-08T06:37:40.161Z,9.40
2022-11-08T06:42:41.894Z,9.40
2022-11-08T06:47:43.727Z,9.50
2022-11-08T06:52:45.706Z,9.60
2022-11-08T06:57:47.451Z,9.60
2022-11-08T07:02:53.857Z,9.70
2022-11-08T07:07:58.129Z,9.80
2022-11-08T07:13:02.287Z,9.70
2022-11-08T07:18:13.720Z,9.70
2022-11-08T07:23:15.587Z,9.90
2022-11-08T07:28:19.161Z,10.00
2022-11-08T07:33:21.397Z,10.10
2022-11-08T07:38:23.906Z,10.70
2022-11-08T07:43:27.723Z,10.90
2022-11-08T07:48:30.920Z,10.60
2022-11-08T07:53:32.806Z,10.50
2022-11-08T07:58:34.605Z,10.50
2022-11-08T08:03:36.738Z,10.70
2022-11-08T08:08:38.665Z,10.90
2022-11-08T08:13:40.459Z,11.40
2022-11-08T08:18:42.267Z,11.20
2022-11-08T08:23:44.163Z,11.20
2022-11-08T08:28:45.950Z,11.20
2022-11-08T08:33:47.713Z,11.20
2022-11-08T08:38:50.063Z,11.20
2022-11-08T08:43:51.898Z,11.10
2022-11-08T08:48:53.838Z,11.30
2022-11-08T08:53:55.544Z,11.20
2022-11-08T09:04:19.187Z,11.20
2022-11-08T09:09:21.980Z,11.20
2022-11-08T09:14:23.950Z,11.20
2022-11-08T09:19:25.798Z,11.80
2022-11-08T09:24:27.539Z,12.60
2022-11-08T09:29:30.952Z,12.10
2022-11-08T09:34:32.819Z,11.90
2022-11-08T09:39:34.591Z,12.20
2022-11-08T09:44:56.808Z,12.30
2022-11-08T09:50:13.531Z,12.30
2022-11-08T09:55:37.079Z,12.10
2022-11-08T10:00:40.475Z,11.80
2022-11-08T10:05:52.130Z,11.80
2022-11-08T10:11:06.513Z,11.90
2022-11-08T10:16:17.445Z,12.00
2022-11-08T10:21:28.154Z,12.10
2022-11-08T10:26:42.630Z,12.10
2022-11-08T10:31:47.853Z,12.10
2022-11-08T10:36:54.660Z,11.90
2022-11-08T10:42:11.374Z,11.70
2022-11-08T10:47:20.926Z,11.60
2022-11-08T10:52:41.029Z,11.70
2022-11-08T10:57:45.093Z,12.10
2022-11-08T11:02:48.905Z,12.80
2022-11-08T11:07:56.191Z,13.10
2022-11-08T11:13:02.545Z,12.80
2022-11-08T11:18:17.093Z,12.50
2022-11-08T11:23:19.004Z,12.40
2022-11-08T11:28:20.816Z,12.40
2022-11-08T11:33:24.179Z,12.30
2022-11-08T11:38:31.991Z,12.30
2022-11-08T11:43:36.498Z,12.40
2022-11-08T11:48:55.549Z,12.70
2022-11-08T11:53:58.374Z,12.60
2022-11-08T11:59:15.625Z,12.50
2022-11-08T12:04:35.990Z,12.40
2022-11-08T12:09:53.650Z,12.40
2022-11-08T12:15:20.177Z,12.30
2022-11-08T12:20:45.075Z,12.30
2022-11-08T12:26:01.746Z,12.20
2022-11-08T12:31:35.634Z,12.20
2022-11-08T12:36:46.332Z,12.10
2022-11-08T12:41:50.890Z,11.90
2022-11-08T12:47:30.846Z,11.70
2022-11-08T12:52:41.364Z,11.70
2022-11-08T12:57:44.871Z,11.60
2022-11-08T13:03:28.281Z,11.50
2022-11-08T13:09:01.433Z,11.60
2022-11-08T13:14:03.840Z,11.60
2022-11-08T13:19:06.160Z,11.50
2022-11-08T13:24:38.072Z,11.50
2022-11-08T13:29:31.021Z,11.40
2022-11-08T13:34:44.922Z,11.30
2022-11-08T13:40:02.047Z,11.40
2022-11-08T13:45:34.843Z,11.30
2022-11-08T13:50:47.923Z,11.30
2022-11-08T13:56:22.896Z,11.30
2022-11-08T14:01:24.660Z,11.30
2022-11-08T14:06:51.514Z,11.30
2022-11-08T14:12:10.229Z,11.30
2022-11-08T14:17:30.750Z,11.30
2022-11-08T14:22:32.534Z,11.40
2022-11-08T14:27:40.431Z,11.50
2022-11-08T14:32:42.232Z,11.40
2022-11-08T14:37:44.247Z,11.30
2022-11-08T14:42:46.518Z,11.20
2022-11-08T14:47:54.044Z,11.20
2022-11-08T14:52:56.604Z,11.20
2022-11-08T14:58:12.262Z,11.20
2022-11-08T15:03:17.808Z,11.20
2022-11-08T15:08:26.529Z,11.30
2022-11-08T15:13:32.578Z,11.30
2022-11-08T15:18:40.012Z,11.30
2022-11-08T15:23:55.792Z,11.30
2022-11-08T15:29:19.879Z,11.40
2022-11-08T15:34:38.582Z,11.40
2022-11-08T15:39:40.338Z,11.40
2022-11-08T15:45:17.681Z,11.40
2022-11-08T15:50:31.093Z,11.30
2022-11-08T15:55:46.550Z,11.30
2022-11-08T16:00:49.329Z,11.30
2022-11-08T16:05:51.079Z,11.30
2022-11-08T16:10:59.999Z,11.30
2022-11-08T16:16:03.556Z,11.30
2022-11-08T16:21:05.565Z,11.30
2022-11-08T16:26:13.262Z,11.30
2022-11-08T16:31:17.818Z,11.30
2022-11-08T16:36:25.012Z,11.30
2022-11-08T16:41:27.266Z,11.30
2022-11-08T16:46:29.241Z,11.20
2022-11-08T16:51:31.262Z,11.30
2022-11-08T16:56:33.045Z,11.20
2022-11-08T17:01:34.905Z,11.20
2022-11-08T17:06:36.882Z,11.20
2022-11-08T17:11:39.716Z,11.20
2022-11-08T17:16:41.726Z,11.20
2022-11-08T17:21:45.387Z,11.20
2022-11-08T17:26:47.805Z,11.20
2022-11-08T17:31:49.752Z,11.20
2022-11-08T17:36:52.952Z,11.20
2022-11-08T17:41:54.823Z,11.20
2022-11-08T17:46:56.579Z,11.20
2022-11-08T17:51:58.344Z,11.20
2022-11-08T17:57:00.250Z,11.20
2022-11-08T18:02:02.221Z,11.10
2022-11-08T18:07:04.191Z,11.20
2022-11-08T18:12:06.242Z,11.20
2022-11-08T18:17:08.125Z,11.20
2022-11-08T18:22:10.075Z,11.20
2022-11-08T18:27:12.205Z,11.10
2022-11-08T18:32:14.030Z,11.10
2022-11-08T18:37:15.807Z,11.10
2022-11-08T18:42:17.568Z,11.10
2022-11-08T18:47:19.763Z,11.10
2022-11-08T18:52:21.692Z,11.10
2022-11-08T18:57:23.974Z,11.10
2022-11-08T19:02:25.722Z,11.10
2022-11-08T19:07:27.841Z,11.00
2022-11-08T19:12:29.891Z,11.00
2022-11-08T19:17:32.960Z,11.10
2022-11-08T19:22:34.801Z,11.00
2022-11-08T19:27:36.558Z,11.10
2022-11-08T19:32:38.326Z,11.10
2022-11-08T19:37:40.085Z,11.10
2022-11-08T19:42:41.884Z,11.10
2022-11-08T19:47:43.772Z,11.10
2022-11-08T19:52:45.540Z,11.10
2022-11-08T19:57:47.523Z,11.10
2022-11-08T20:02:50.942Z,11.10
2022-11-08T20:07:52.749Z,11.10
2022-11-08T20:12:54.484Z,11.10
2022-11-08T20:17:56.306Z,11.20
2022-11-08T20:22:58.098Z,11.20
2022-11-08T20:28:00.678Z,11.20
2022-11-08T20:33:02.407Z,11.20
2022-11-08T20:38:04.482Z,11.20
2022-11-08T20:43:07.653Z,11.20
2022-11-08T20:48:09.466Z,11.20
2022-11-08T20:53:11.217Z,11.20
2022-11-08T20:58:12.981Z,11.20
2022-11-08T21:03:18.839Z,11.20
2022-11-08T21:08:58.573Z,11.30
2022-11-08T21:13:44.813Z,11.30
2022-11-08T21:18:46.734Z,11.30
2022-11-08T21:23:49.010Z,11.30
2022-11-08T21:28:52.123Z,11.30
2022-11-08T21:33:53.952Z,11.30
2022-11-08T21:38:55.888Z,11.30
2022-11-08T21:43:58.771Z,11.30
2022-11-08T21:49:02.008Z,11.30
2022-11-08T21:54:04.365Z,11.30
2022-11-08T21:59:06.160Z,11.30
2022-11-08T22:04:08.604Z,11.30
2022-11-08T22:09:10.351Z,11.30
2022-11-08T22:14:12.102Z,11.30
2022-11-08T22:19:14.510Z,11.30
2022-11-08T22:24:20.234Z,11.30
2022-11-08T22:29:22.222Z,11.40
2022-11-08T22:34:24.020Z,11.40
2022-11-08T22:39:26.374Z,11.40
2022-11-08T22:44:28.191Z,11.40
2022-11-08T22:49:30.167Z,11.40
2022-11-08T22:54:31.896Z,11.40
2022-11-08T22:59:33.647Z,11.40
2022-11-08T23:04:35.452Z,11.30
2022-11-08T23:09:37.239Z,11.30
2022-11-08T23:14:57.485Z,11.40
2022-11-08T23:20:18.268Z,11.40
2022-11-08T23:25:20.190Z,11.20
2022-11-08T23:30:40.969Z,11.20
2022-11-08T23:36:02.747Z,11.20
2022-11-08T23:41:24.143Z,11.20
2022-11-08T23:46:25.895Z,11.30
2022-11-08T23:51:27.687Z,11.30
2022-11-08T23:56:29.714Z,11.30
